Galloway, NJ

3:40 PM EDT on September 04, 2015 (GMT -0400)
Galloway Twp Police Dept | | Change Station
CLOSE
Current Station
Personal Weather Station
Location: Galloway, NJ
Elevation: 30 ft
Nearby Weather Stations

Elev 30 ft 39.46 °N, 74.50 °W | Updated 26 seconds ago

Partly Cloudy
Partly Cloudy
78.2 °F
Feels Like 81 °F
N
16.0
Wind Variable Wind from ENE
Gusts 23.0 mph

Today
High -- | Low -- °F
--% Chance of Precip.
Yesterday
High -- | Low -- °F
Precip. -- in
6:28 AM 7:24 PM
Waning Gibbous, 56% visible
Pressure 30.05 in
Visibility 7.0 miles
Clouds Scattered Clouds 2200 ft
Heat Index 81 °F
Dew Point 73 °F
Humidity 84%
Rainfall 0.00 in
Snow Depth Not available.
UV 6 out of 12
Pollen 9.50 out of 12
Air Quality Not available.
Flu Activity Not available.
METAR KACY 041854Z 07016KT 7SM SCT022 29/21 A3005 RMK AO2 SLP175 T02890211
Pressure 30.05 in
Visibility 7.0 miles
Clouds Scattered Clouds 2200 ft
Heat Index 81 °F
Dew Point 73 °F
Humidity 84%
Rainfall 0.00 in
Snow Depth Not available.
UV 6 out of 12
Pollen 9.50 out of 12
Air Quality Not available.
Flu Activity Not available.
METAR KACY 041854Z 07016KT 7SM SCT022 29/21 A3005 RMK AO2 SLP175 T02890211

10-Day Weather Forecast

×

Almanac

Astronomy

Sep. 04, 2015 Rise Set
Actual Time
Civil Twilight
Nautical Twilight
Astronomical Twilight
Moon
Length of Visible Light
Length of Day
Tomorrow will be .
, % of the Moon is Illuminated

Today's Extremes

State Highs State Lows

Community

WunderPhotos

Upload Photos

1,852,272 photos uploaded!

WunderBlogs® & News

Nearby

Air Quality

  Air Quality AQ Index Pollutant
Not available.

Snow Depth

Station Depth Elevation

Earthquake Activity

City Distance Mag. Time & Date
Minimum magnitude displayed is 2.5.

Coastal Water Temperatures

Place Temperature

Stations

Nearby Weather Stations

Station Location Temp. Windchill Dew Point Humidity Wind Precip. Elev Updated Type